Tiempo atmosférico en la estación meteorológica de Grazalema, Cádiz (900 m.)



Fecha
DESCASC
Temp. máxima en grados centígrados (hora)
DESCASC
Temp. mínima en grados centígrados (hora)
DESCASC
Temp. media en grados centígrados
DESCASC
Racha de viento máxima en m/sg (hora)
DESCASC
Velocidad máxima media en intervalos de 10 minutos(hora)
DESCASC
Precipitaciones diarias en mm
DESCASC
Precipitaciones de 00:00 a 06:00 en mm
DESCASC
Precipitaciones de 06:00 a 12:00 en mm
DESCASC
Precipitaciones de 12:00 a 18:00 en mm
DESCASC
Precipitaciones de 18:00 a 24:00 en mm
DESCASC
05-04-2020 18.6 (14:20) 8.1 (04:30) 13.4 8.33 (02:20) 3.06 (01:30) 0 0 0 0 0
04-04-2020 12.9 (17:00) 8.7 (03:50) 10.8 12.78 (07:50) 4.72 (10:40) 0 0 0 0 0
03-04-2020 16.2 (16:00) 3.9 (08:00) 10.1 8.89 (23:50) 3.61 (22:10) 0.1 0.1 0 0 0
02-04-2020 8.1 (17:30) 2.1 (00:00) 5.1 11.67 (06:50) 3.61 (06:10) 33 16.2 16.1 0.7 0
01-04-2020 11.5 (13:40) 6.3 (00:00) 8.9 8.89 (21:20) 2.78 (17:30) 4.8 0.6 0.1 0.3 3.8
31-03-2020 12.3 (15:10) 7 (00:00) 9.7 10.28 (01:30) 2.78 (18:50) 39.4 7.9 17.2 5.5 8.8
30-03-2020 13.6 (15:10) 4.5 (00:00) 9.1 6.11 (20:00) 2.5 (06:30) 2.8 0 0 0 2.8
29-03-2020 14 (12:20) 3.9 (00:00) 9 5 (12:00) 2.22 (05:10) 1.1 0 0 0 1.1
28-03-2020 15 (14:00) 2.5 (00:00) 8.8 7.22 (11:40) 2.78 (11:50) 0 0 0 0 0
27-03-2020 12.3 (15:00) 3.4 (00:00) 7.9 7.22 (10:50) 2.78 (10:40) 0 0 0 0 0
26-03-2020 14.3 (15:10) 6.2 (00:00) 10.3 8.89 (12:40) 3.61 (07:30) 0 0 0 0 0
25-03-2020 10.6 (15:50) 6.1 (00:00) 8.4 4.44 (16:00) 2.22 (20:40) 1.3 0.1 1.1 0.1 0
24-03-2020 11.5 (18:00) 4.9 (00:00) 8.2 3.33 (07:20) 1.67 (20:20) 13.6 0.1 6.7 0.4 6.4
23-03-2020 12.1 (13:20) 2.1 (00:00) 7.1 5.83 (13:30) 3.06 (13:30) -- 0.1 -- 0.3 0.4
22-03-2020 9.8 (17:00) 2.4 (07:40) 6.1 4.72 (15:50) 1.94 (14:40) 5.6 5.3 0.1 0.2 0
21-03-2020 10.3 (12:00) 3.1 (00:00) 6.7 8.89 (15:50) 3.33 (01:30) 65.1 28.9 2.8 21.9 11.5
20-03-2020 13.2 (16:50) 6.1 (00:00) 9.6 9.72 (10:10) 4.44 (21:20) 0 0 0 0 0
19-03-2020 14.8 (13:30) 9.4 (00:00) 12.1 13.61 (00:10) 5.56 (01:30) 0 0 0 0 0
18-03-2020 14.3 (16:00) 9.9 (00:00) 12.1 14.17 (11:40) 6.67 (18:20) 0.1 0 0.1 0 0
17-03-2020 10.9 (23:59) 1.9 (00:00) 6.4 12.22 (13:00) 5 (13:00) 12.9 9.2 3.6 0.1 0
16-03-2020 10.4 (14:20) 3.8 (00:00) 7.1 10 (12:10) 3.61 (11:00) 1.5 1.4 0.1 0 0
15-03-2020 19.1 (13:40) 8.1 (00:00) 13.6 6.67 (13:40) 2.5 (02:10) 0 0 0 0 0
14-03-2020 19.3 (13:30) 6.6 (00:00) 12.9 3.89 (12:30) 2.5 (01:10) 0 0 0 0 0
13-03-2020 19.3 (13:50) 8.4 (07:20) 13.8 3.89 (16:20) 2.5 (01:50) 0 0 0 0 0
12-03-2020 23.5 (12:20) 11.8 (00:00) 17.7 6.94 (05:50) 2.5 (06:00) 0 0 0 0 0
11-03-2020 23 (17:20) 11.2 (00:00) 17.1 10.28 (16:40) 4.72 (19:10) 0 0 0 0 0
10-03-2020 22.8 (15:20) 8.2 (00:00) 15.5 5 (16:00) 2.5 (23:59) 0 0 0 0 0
09-03-2020 19.5 (15:30) 5.6 (00:00) 12.5 5.83 (16:40) 2.5 (15:40) 0 0 0 0 0
08-03-2020 20 (15:40) 3.3 (00:00) 11.6 4.44 (20:10) 2.78 (06:00) 0 0 0 0 0

Gráficas

Temp. máximas Temp. mínimas Temp. medias Precipitaciones Rachas de viento máximas Velocidades máximas media en intervalos de 10 minutos

Datos horarios

Fecha y hora oficial Temperatura (ºC) Velocidad del viento (km/h) Dirección del viento Racha (km/h) Dirección de racha Precipitación (mm) Presión (hPa) Tendencia (hPa) Humedad (%)
2020-04-06 23:00:00 9.2 8 Oeste 11 Oeste 0 919.1 1.6 91
2020-04-06 22:00:00 10.1 8 Oeste 12 Oeste 0 918.5 1.2 89
2020-04-06 21:00:00 11.7 6 Oeste 11 Sudoeste 0 917.8 0.3 87
2020-04-06 20:00:00 13 4 Oeste 15 Sudoeste 0 917.5 -0.4 82
2020-04-06 19:00:00 13.6 5 Oeste 15 Noroeste 0 917.3 -0.8 81
2020-04-06 18:00:00 14.4 5 Oeste 16 Sudoeste 0.1 917.5 -0.5 79
2020-04-06 17:00:00 14.5 4 Oeste 15 Sudoeste 0 917.9 -0.2 79
2020-04-06 16:00:00 14.5 6 Oeste 16 Noroeste 0.1 918.1 0.1 80
2020-04-06 15:00:00 14.6 3 Oeste 13 Sudoeste 0 918 0.1 85
2020-04-06 14:00:00 13.9 4 Oeste 13 Oeste 0 918.1 0.9 87
2020-04-06 13:00:00 14.4 6 Oeste 15 Sudoeste 0 918 1.3 79
2020-04-06 12:00:00 14.7 4 Oeste 14 Sudoeste 0 917.9 1.4 80
2020-04-06 11:00:00 12.8 0 Calma 12 Oeste 0 917.2 1.5 88
2020-04-06 10:00:00 11.6 5 Oeste 15 Oeste 0 916.7 1.6 91
2020-04-06 09:00:00 11.3 4 Oeste 8 Oeste 0 916.5 1.5 91
2020-04-06 08:00:00 11.4 3 Oeste 8 Noroeste 0 915.7 0.9 87
2020-04-06 07:00:00 11.3 3 Oeste 8 Oeste 0 915.1 0 86
2020-04-06 06:00:00 10.4 2 Este 14 Sudoeste 0 915 -0.1 85
2020-04-06 05:00:00 10.3 4 Oeste 15 Oeste 0 914.8 -0.7 86
2020-04-06 04:00:00 9.4 0 Calma 8 Nordeste 0 915.1 -0.4 85
2020-04-06 03:00:00 10.7 5 Oeste 15 Sudoeste 0 915.1 -0.1 82
2020-04-06 02:00:00 11.1 4 Oeste 13 Oeste 0 915.5 0.5 79
2020-04-06 01:00:00 11.5 4 Oeste 16 Noroeste 0 915.5 0.7 78
2020-04-06 00:00:00 11.3 6 Oeste 15 Sudoeste 0 915.2 1 82
2020-04-05 23:00:00 11.7 7 Oeste 16 Sudoeste 0 915 1 82
2020-04-05 22:00:00 11.9 4 Oeste 13 Oeste 0 914.8 0.9 82
2020-04-05 21:00:00 12.2 4 Oeste 18 Sudoeste 0 914.2 0.6 80
2020-04-05 20:00:00 13.2 4 Oeste 13 Sudoeste 0 914 0.5 76
2020-04-05 19:00:00 14 5 Oeste 15 Oeste 0 913.9 0.2 73
2020-04-05 18:00:00 15 4 Sudoeste 19 Sudoeste 0 913.6 -0.2 69
2020-04-05 17:00:00 16.1 5 Oeste 23 Oeste 0 913.5 -0.3 64
2020-04-05 16:00:00 17.8 7 Oeste 21 Sudoeste 0 913.7 -0.5 59
2020-04-05 15:00:00 18 7 Oeste 24 Sudoeste 0 913.8 -0.3 58
2020-04-05 14:00:00 17.7 4 Sudeste 20 Sudeste 0 913.8 0.1 55
2020-04-05 13:00:00 16.8 5 Oeste 23 Sudoeste 0 914.2 0.9 55
2020-04-05 12:00:00 17.1 5 Sudoeste 19 Oeste 0 914.1 1.4 53
2020-04-05 11:00:00 16.2 2 Oeste 13 Oeste 0 913.7 1.5 56
2020-04-05 10:00:00 13.6 3 Este 16 Sur 0 913.3 1.4 59
2020-04-05 09:00:00 12 3 Este 22 Sur 0 912.7 0.8 60
2020-04-05 08:00:00 10.9 3 Este 21 Sudeste 0 912.2 0.3 65
2020-04-05 07:00:00 10.8 3 Sudeste 23 Sur 0 911.9 0 60
2020-04-05 06:00:00 10.6 5 Sur 22 Sudeste 0 911.9 -0.2 62
2020-04-05 05:00:00 9.3 3 Sur 16 Norte 0 911.9 -0.5 67
2020-04-05 04:00:00 9.5 3 Oeste 26 Sudeste 0 911.9 -0.6 66
2020-04-05 03:00:00 9.8 11 Este 30 Sur 0 912.1 -0.5 64
2020-04-05 02:00:00 11.5 9 Sudeste 30 Sur 0 912.4 -0.2 53
2020-04-05 01:00:00 11.2 5 Este 22 Sudeste 0 912.5 0.4 54
2020-04-05 00:00:00 11 6 Este 22 Sudeste 0 912.6 1.2 52
2020-04-04 23:00:00 11.1 6 Este 23 Sudeste 0 912.6 1.8 51
2020-04-04 22:00:00 11.4 9 Sudeste 28 Sur 0 912.1 1.6 53
2020-04-04 21:00:00 10.8 6 Sur 24 Sur 0 911.4 0.9 58
2020-04-04 20:00:00 11.6 3 Sur 23 Sur 0 910.8 1 58
2020-04-04 19:00:00 11.5 4 Sur 33 Sur 0 910.5 1.2 62
2020-04-04 18:00:00 11.3 9 Sur 39 Sur 0 910.5 0.3 64
2020-04-04 17:00:00 12.8 3 Sudeste 24 Este 0 909.8 -1.5 61
2020-04-04 16:00:00 11.6 8 Nordeste 28 Este 0 909.3 -1.1 68
2020-04-04 15:00:00 10.3 5 Nordeste 27 Este 0 910.2 0.2 76
2020-04-04 14:00:00 11.2 10 Sudeste 39 Sudeste 0 911.3 1.8 68
2020-04-04 13:00:00 12.3 11 Este 36 Nordeste 0 910.4 1.6 54
2020-04-04 12:00:00 12.1 8 Este 37 Este 0 910 1.3 51
2020-04-04 11:00:00 11.7 14 Nordeste 44 Este 0 909.5 1.2 47
2020-04-04 10:00:00 10.4 16 Nordeste 40 Este 0 908.8 0.6 48
2020-04-04 09:00:00 10.2 14 Nordeste 39 Este 0 908.7 0.3 48
2020-04-04 08:00:00 9.7 12 Nordeste 46 Este 0 908.3 -0.3 49
2020-04-04 07:00:00 9.3 11 Nordeste 41 Este 0 908.2 -1.1 49
2020-04-04 06:00:00 9.3 10 Nordeste 33 Nordeste 0 908.4 -1.4 53
2020-04-04 05:00:00 9.1 7 Nordeste 30 Este 0 908.6 -1.3 53
2020-04-04 04:00:00 8.8 9 Nordeste 31 Nordeste 0 909.3 -1.1 51
2020-04-04 03:00:00 9 15 Este 42 Este 0 909.8 -1 56
2020-04-04 02:00:00 9.3 9 Este 33 Este 0 909.9 -1.3 57
2020-04-04 01:00:00 9.4 10 Este 31 Este 0 910.4 -0.2 55
2020-04-04 00:00:00 9.6 9 Nordeste 32 Este 0 910.8 0.6 54
2020-04-03 23:00:00 9.2 6 Nordeste 26 Este 0 911.2 0.8 58
2020-04-03 22:00:00 9.4 13 Sudeste 28 Este 0 910.6 0.3 62
2020-04-03 21:00:00 10 7 Sudeste 22 Sudeste 0 910.2 -0.1 66
2020-04-03 20:00:00 11.3 0 Calma 18 Este 0 910.4 0 62
2020-04-03 19:00:00 12.7 9 Este 18 Este 0 910.3 -0.5 57
2020-04-03 18:00:00 13.6 4 Nordeste 19 Este 0 910.3 -1.2 61
2020-04-03 17:00:00 13.9 4 Nordeste 13 Este 0 910.4 -1.4 62
2020-04-03 16:00:00 16.1 5 Este 15 Nordeste 0 910.8 -1.6 45
2020-04-03 15:00:00 15.3 7 Este 14 Este 0 911.5 -1 50
2020-04-03 14:00:00 15.2 9 Este 21 Este 0 911.8 -0.4 53
2020-04-03 13:00:00 14.3 6 Este 16 Este 0 912.4 0.6 57
2020-04-03 12:00:00 13.1 5 Este 13 Este 0 912.5 1 60
2020-04-03 11:00:00 12.3 5 Este 10 Este 0 912.2 1.2 64
2020-04-03 10:00:00 9.7 5 Este 10 Este 0 911.8 1.3 72
2020-04-03 09:00:00 5.6 2 Oeste 11 Oeste 0 911.5 1 92
2020-04-03 08:00:00 4.1 7 Oeste 10 Oeste 0 911 0.3 90
2020-04-03 07:00:00 5.1 5 Oeste 10 Noroeste 0 910.5 -0.7 87
2020-04-03 06:00:00 6.9 4 Oeste 16 Oeste 0 910.5 -1 79
2020-04-03 05:00:00 7.2 4 Oeste 15 Sudoeste 0 910.7 -1.3 78
2020-04-03 04:00:00 7.2 6 Oeste 15 Sudoeste 0 911.2 -0.7 78
2020-04-03 03:00:00 6.2 5 Oeste 15 Oeste 0 911.5 0.1 85
2020-04-03 02:00:00 5.8 6 Oeste 15 Noroeste 0 912 0.9 91
2020-04-03 01:00:00 6 6 Oeste 15 Sudoeste 0.1 911.9 1.4 90
2020-04-03 00:00:00 5.9 5 Oeste 12 Oeste 0 911.4 1.6 85
2020-04-02 23:00:00 6.6 5 Sudoeste 17 Noroeste 0 911.1 1.7 82
2020-04-02 22:00:00 6.9 5 Oeste 21 Sudoeste 0 910.5 1.5 82
2020-04-02 21:00:00 6.9 4 Oeste 22 Sudoeste 0 909.8 1.3 83
2020-04-02 20:00:00 7.4 6 Oeste 27 Noroeste 0 909.4 1.5 83
2020-04-02 19:00:00 7.6 8 Oeste 30 Noroeste 0 909 1.3 76
2020-04-02 18:00:00 7.9 8 Oeste 22 Noroeste 0 908.5 1.2 72
2020-04-02 17:00:00 7.6 3 Oeste 30 Noroeste 0 907.9 0.8 78
2020-04-02 16:00:00 7.3 7 Oeste 23 Noroeste 0.1 907.7 1 83
2020-04-02 15:00:00 6.9 7 Oeste 26 Oeste 0.5 907.3 0.6 80
2020-04-02 14:00:00 7 4 Oeste 17 Sur 0 907.1 0.4 81
2020-04-02 13:00:00 7.2 5 Oeste 17 Noroeste 0.1 906.7 0.7 82
2020-04-02 12:00:00 4.5 2 Nordeste 8 Oeste 2.2 906.7 1.3 90
2020-04-02 11:00:00 3.1 3 Oeste 6 Oeste 3.8 906.7 1.5 90
2020-04-02 10:00:00 4.1 3 Sudoeste 11 Noroeste 1.1 906 0 91
2020-04-02 09:00:00 3.9 4 Oeste 17 Oeste 0.1 905.4 0.3 94
2020-04-02 08:00:00 3.6 4 Sudoeste 14 Oeste 0.3 905.2 -0.4 93
2020-04-02 07:00:00 3.3 6 Oeste 42 Sudoeste 8.6 906 -0.5 92
2020-04-02 06:00:00 5.8 5 Oeste 17 Noroeste 4.1 905.1 -2.2 94
2020-04-02 05:00:00 5.4 7 Sudoeste 26 Oeste 2.1 905.6 -2.1 92
2020-04-02 04:00:00 5.6 6 Sudoeste 24 Oeste 3.8 906.5 -2 94
2020-04-02 03:00:00 5.5 6 Oeste 28 Oeste 5.4 907.3 -1.5 94
2020-04-02 02:00:00 6.2 8 Sudoeste 28 Oeste 0.7 907.7 -1.4 93
2020-04-02 01:00:00 6.3 7 Oeste 23 Oeste 0.1 908.5 -0.2 92
2020-04-02 00:00:00 6.4 9 Sudoeste 26 Sudoeste 0.1 908.8 0.5 92
2020-04-01 23:00:00 6.3 6 Oeste 24 Noroeste 0.4 909.1 0.7 91
2020-04-01 22:00:00 6.4 5 Oeste 32 Sudoeste 0.1 908.7 0.6 91
2020-04-01 21:00:00 6.5 5 Oeste 19 Oeste 0.2 908.3 0.4 92
2020-04-01 20:00:00 6.8 8 Sudoeste 22 Noroeste 3 908.4 0.4 91
2020-04-01 19:00:00 8.6 5 Sudoeste 30 Sur 0 908.1 -0.2 74
2020-04-01 18:00:00 9.3 8 Oeste 24 Oeste 0 907.9 -0.5 68
2020-04-01 17:00:00 9.3 9 Oeste 26 Sudoeste 0 908 -0.7 70
2020-04-01 16:00:00 9.7 6 Oeste 23 Oeste 0.1 908.3 -0.9 70
2020-04-01 15:00:00 9.9 5 Sudoeste 19 Sudoeste 0.2 908.4 -1.1 82
2020-04-01 14:00:00 11.5 6 Oeste 19 Sur 0 908.7 -0.3 64
2020-04-01 13:00:00 11.3 4 Sudoeste 18 Oeste 0 909.2 0.8 64
2020-04-01 12:00:00 8.9 4 Oeste 23 Noroeste 0 909.5 1.4 80
2020-04-01 11:00:00 9.6 7 Oeste 17 Sudoeste 0 909 1.9 75
2020-04-01 10:00:00 7.5 0 Calma 9 Noroeste 0 908.4 1.5 92
2020-04-01 09:00:00 6.9 3 Oeste 11 Oeste 0.1 908.1 1.5 89
2020-04-01 08:00:00 6.9 4 Oeste 9 Oeste 0 907.1 0.5 89
2020-04-01 07:00:00 6.8 3 Oeste 10 Sudoeste 0 906.9 0.2 90
2020-04-01 06:00:00 6.6 4 Oeste 13 Sudoeste 0 906.6 -0.4 90
2020-04-01 05:00:00 6.6 4 Sudoeste 14 Sudoeste 0 906.6 -0.4 91
2020-04-01 04:00:00 7.1 5 Sudoeste 15 Sudoeste 0.2 906.7 -0.3 92
2020-04-01 03:00:00 7.3 4 Oeste 21 Noroeste 0 907 0.3 92
2020-04-01 02:00:00 7.6 8 Sudoeste 24 Sudoeste 0.2 907 0.7 92
2020-04-01 01:00:00 8 6 Oeste 21 Oeste 0.2 907 1.4 92
2020-04-01 00:00:00 8.2 6 Oeste 19 Oeste 0 906.7 1.7 92
2020-03-31 23:00:00 8.3 6 Oeste 19 Oeste 0 906.3 2 90
2020-03-31 22:00:00 8.4 5 Oeste 24 Sudoeste 0.1 905.6 1.7 93
2020-03-31 21:00:00 8.4 5 Sudoeste 27 Oeste 0.3 905 1.8 94
2020-03-31 20:00:00 8.2 8 Sudoeste 28 Sudoeste 7.2 904.3 1.5 94
2020-03-31 19:00:00 9.2 10 Oeste 27 Oeste 1.2 903.9 1.3 89
2020-03-31 18:00:00 10 8 Oeste 28 Sudoeste 0.2 903.2 0.7 88
2020-03-31 17:00:00 9.9 8 Oeste 22 Sudoeste 3.4 902.8 0.3 91
2020-03-31 16:00:00 10.8 4 Oeste 27 Sudeste 0 902.6 0.2 85
2020-03-31 15:00:00 12.2 6 Sur 24 Sudeste 0.1 902.5 0.3 78
2020-03-31 14:00:00 11.5 5 Sudoeste 24 Noroeste 1.2 902.5 0.6 85
2020-03-31 13:00:00 11 7 Oeste 27 Noroeste 0.6 902.4 0.7 83
2020-03-31 12:00:00 10.2 5 Oeste 23 Noroeste 0 902.2 0.9 85
2020-03-31 11:00:00 9.5 4 Oeste 19 Oeste 0.4 901.9 1.3 94
2020-03-31 10:00:00 8 5 Sudoeste 22 Sudoeste 5.5 901.7 1.6 95
2020-03-31 09:00:00 7.4 0 Calma 15 Oeste 5.8 901.3 1.4 95
2020-03-31 08:00:00 7.2 6 Oeste 22 Sudeste 5.5 900.6 0.1 94
2020-03-31 07:00:00 8.2 0 Calma 20 Sudeste 0 900.1 -0.5 88
2020-03-31 06:00:00 8.4 0 Calma 21 Sur 0.1 899.9 -1.2 85
2020-03-31 05:00:00 8.5 2 Sudoeste 20 Sudoeste 0 900.5 -0.7 87
2020-03-31 04:00:00 8.4 2 Sudoeste 26 Este 1.2 900.6 -1.3 85
2020-03-31 03:00:00 8.3 5 Oeste 33 Sur 5.6 901.1 -1.8 89
2020-03-31 02:00:00 8.8 6 Sudeste 37 Sur 0.7 901.2 -2.3 87
2020-03-31 01:00:00 8.6 0 Calma 26 Sur 0.3 901.9 -2.1 87
2020-03-31 00:00:00 7.8 2 Sudoeste 18 Oeste 2.3 902.9 -1.2 85
2020-03-30 23:00:00 8.3 4 Oeste 19 Sudeste 0.4 903.5 -0.7 83
2020-03-30 22:00:00 8.8 0 Calma 13 Sudoeste 0.1 904 -1 76
2020-03-30 21:00:00 8.8 5 Oeste 18 Oeste 0 904.1 -1.4 84
2020-03-30 20:00:00 9.9 7 Oeste 22 Sudoeste 0 904.2 -1.8 68
2020-03-30 19:00:00 10.6 3 Sudoeste 14 Noroeste 0 905 -1.3 75
2020-03-30 18:00:00 10.2 5 Oeste 15 Oeste 0 905.5 -1.2 81
2020-03-30 17:00:00 10.5 5 Oeste 19 Oeste 0 906 -1.5 80
2020-03-30 16:00:00 12.2 7 Oeste 18 Sudoeste 0 906.3 -1.3 71
2020-03-30 15:00:00 13.4 5 Oeste 17 Oeste 0 906.7 -1.9 65
2020-03-30 14:00:00 13.5 6 Oeste 18 Oeste 0 907.5 -1.2 62
2020-03-30 13:00:00 12.4 4 Nordeste 17 Nordeste 0 907.6 -1.3 59
2020-03-30 12:00:00 10.6 3 Oeste 9 Sudoeste 0 908.6 -0.2 77
2020-03-30 11:00:00 9.9 0 Calma 15 Noroeste 0 908.7 -0.1 74
2020-03-30 10:00:00 8 6 Oeste 14 Sudoeste 0 908.9 -0.1 82
2020-03-30 09:00:00 6.8 6 Noroeste 12 Noroeste 0 908.8 -0.5 88
2020-03-30 08:00:00 5.7 6 Oeste 10 Noroeste 0 908.8 -0.9 89
2020-03-30 07:00:00 4.9 6 Oeste 13 Noroeste 0 909 -1.4 90
2020-03-30 06:00:00 5.4 6 Oeste 10 Oeste 0 909.3 -1.7 92
2020-03-30 05:00:00 7.4 4 Oeste 9 Oeste 0 909.7 -1.9 92
2020-03-30 04:00:00 8 5 Oeste 9 Noroeste 0 910.4 -1.6 92
2020-03-30 03:00:00 7.7 5 Oeste 13 Oeste 0 911 -1.6 95
2020-03-30 02:00:00 7 7 Oeste 11 Oeste 0 911.6 -1.2 93
2020-03-30 01:00:00 7.6 4 Oeste 9 Oeste 0 912 -0.6 94
2020-03-30 00:00:00 7.6 5 Oeste 9 Oeste 0 912.6 0.2 95
2020-03-29 23:00:00 8.1 4 Oeste 8 Oeste 0.1 912.8 0.2 94
2020-03-29 22:00:00 8.7 3 Oeste 10 Noroeste 0.1 912.6 0.2 93
2020-03-29 21:00:00 9.2 3 Oeste 9 Oeste 0.4 912.4 -0.2 93
2020-03-29 20:00:00 10.1 3 Oeste 14 Sudoeste 0.5 912.6 0 91
2020-03-29 19:00:00 11.5 4 Oeste 12 Oeste 0 912.4 -0.7 74
2020-03-29 18:00:00 12.3 5 Oeste 12 Sudoeste 0 912.6 -1 68
2020-03-29 17:00:00 13 3 Oeste 11 Oeste 0 912.6 -1.3 63
2020-03-29 16:00:00 13 3 Oeste 13 Sudoeste 0 913.1 -1 63
2020-03-29 15:00:00 13 4 Oeste 15 Oeste 0 913.6 -0.6 62
2020-03-29 14:00:00 11.8 4 Noroeste 14 Noroeste 0 913.9 -0.3 64
2020-03-29 13:00:00 10.9 4 Oeste 12 Oeste 0 914.1 0.1 69
2020-03-29 12:00:00 13.4 6 Norte 18 Norte 0 914.2 0.2 58
2020-03-29 11:00:00 12.4 3 Nordeste 10 Nordeste 0 914.2 0.9 57
2020-03-29 10:00:00 8.9 2 Noroeste 9 Noroeste 0 914 0.8 75
2020-03-29 09:00:00 5.4 6 Oeste 9 Oeste 0 914 0.7 94
2020-03-29 08:00:00 4.2 5 Oeste 9 Noroeste 0 913.3 -0.2 94
2020-03-29 07:00:00 4.3 5 Oeste 10 Oeste 0 913.2 -0.7 93
2020-03-29 06:00:00 4.3 5 Oeste 12 Noroeste 0 913.3 -1.2 93
2020-03-29 05:00:00 4.2 7 Oeste 10 Oeste 0 913.5 -1.1 94
2020-03-29 03:00:00 4.1 5 Oeste 8 Oeste 0 914.5 0.2 93
2020-03-29 01:00:00 5 4 Oeste 10 Noroeste 0 914.6 0.5 93
2020-03-29 00:00:00 5.5 5 Oeste 10 Oeste 0 914.6 1.2 91
2020-03-28 23:00:00 6.2 6 Oeste 9 Oeste 0 914.3 1.6 90
2020-03-28 22:00:00 7.7 4 Oeste 8 Oeste 0 914.1 1.7 87
2020-03-28 21:00:00 8.9 3 Oeste 5 Oeste 0 913.4 1.6 87
2020-03-28 20:00:00 9.6 0 Calma 4 Nordeste 0 912.7 1.2 84
2020-03-28 19:00:00 10.1 0 Calma 8 Sur 0 912.4 1.2 78
2020-03-28 18:00:00 10.7 0 Calma 11 Sur 0 911.8 0.6 75
2020-03-28 17:00:00 10.7 3 Sudoeste 16 Sudoeste 0 911.5 0.1 77
2020-03-28 16:00:00 11.5 5 Sudeste 21 Este 0 911.2 -0.1 70
2020-03-28 15:00:00 13 8 Este 23 Este 0 911.2 -0.1 64
2020-03-28 14:00:00 15 2 Sudeste 21 Este 0 911.4 0.2 51
2020-03-28 13:00:00 13.9 3 Sur 21 Este 0 911.3 0.7 51
2020-03-28 12:00:00 13.3 5 Nordeste 26 Nordeste 0 911.3 1.1 55
2020-03-28 11:00:00 12.5 5 Este 19 Este 0 911.2 1.6 60
2020-03-28 10:00:00 11.1 4 Sudeste 18 Sur 0 910.6 1.4 61
2020-03-28 09:00:00 8.4 3 Este 15 Sur 0 910.2 1.7 71
2020-03-28 08:00:00 4.3 5 Oeste 11 Oeste 0 909.6 1.3 94
2020-03-28 07:00:00 2.6 6 Oeste 9 Oeste 0 909.2 1 93
2020-03-28 06:00:00 2.9 6 Oeste 10 Oeste 0 908.5 0 93
2020-03-28 05:00:00 3.4 6 Oeste 11 Oeste 0 908.3 -0.4 92
2020-03-28 04:00:00 3.5 8 Oeste 13 Oeste 0 908.2 -0.5 93
2020-03-28 03:00:00 3 6 Oeste 13 Oeste 0 908.5 -0.1 88
2020-03-28 02:00:00 3.2 5 Oeste 11 Noroeste 0 908.7 0.4 87
2020-03-28 01:00:00 3.4 6 Oeste 10 Oeste 0 908.7 0.8 84
2020-03-28 00:00:00 3.4 8 Oeste 12 Oeste 0 908.6 1.2 76
2020-03-27 23:00:00 3.9 7 Oeste 15 Oeste 0 908.3 1.6 76
2020-03-27 22:00:00 5 7 Oeste 12 Noroeste 0 907.9 1.6 76
2020-03-27 21:00:00 7.4 5 Oeste 14 Sudoeste 0 907.4 1.6 86
2020-03-27 20:00:00 8 5 Oeste 18 Oeste 0 906.7 1.1 85
2020-03-27 19:00:00 9.2 6 Oeste 18 Sudoeste 0 906.3 0.4 76
2020-03-27 18:00:00 10.3 5 Oeste 22 Sudoeste 0 905.8 -0.1 70
2020-03-27 17:00:00 11.7 6 Oeste 17 Noroeste 0 905.6 -0.9 63
2020-03-27 16:00:00 11.6 7 Oeste 23 Oeste 0 905.9 -0.8 65
2020-03-27 15:00:00 12 7 Oeste 24 Oeste 0 905.9 -0.6 67
2020-03-27 14:00:00 11.6 4 Oeste 23 Sudoeste 0 906.5 0.2 65
2020-03-27 13:00:00 10.7 8 Oeste 20 Sudoeste 0 906.7 0.8 71
2020-03-27 12:00:00 11.4 6 Oeste 24 Noroeste 0 906.5 1.3 71
2020-03-27 11:00:00 11.2 9 Oeste 26 Sudoeste 0 906.3 1.3 70
2020-03-27 10:00:00 10.4 8 Oeste 23 Sudoeste 0 905.9 1.2 67
2020-03-27 09:00:00 9.3 8 Oeste 24 Sur 0 905.2 0.4 66
2020-03-27 08:00:00 7.3 8 Oeste 23 Noroeste 0 905 -0.1 73
2020-03-27 07:00:00 6 7 Oeste 17 Oeste 0 904.7 -0.4 81
2020-03-27 06:00:00 5.5 6 Oeste 15 Sudoeste 0 904.8 -1 88
2020-03-27 05:00:00 4.3 5 Oeste 11 Oeste 0 905.1 -1.1 88
2020-03-27 04:00:00 5.2 5 Oeste 10 Sudoeste 0 905.1 -1.5 92
2020-03-27 03:00:00 6.6 4 Oeste 11 Oeste 0 905.8 -1.3 91
2020-03-27 02:00:00 7.4 5 Oeste 9 Oeste 0 906.2 -0.9 91
2020-03-27 01:00:00 8.7 3 Oeste 19 Sudoeste 0 906.6 -0.7 83
2020-03-27 00:00:00 9.4 5 Oeste 21 Oeste 0 907.1 0 82
2020-03-26 23:00:00 9 4 Oeste 21 Sudoeste 0 907.1 0.3 82
2020-03-26 22:00:00 8.8 4 Sudoeste 27 Sur 0 907.3 0.7 83
2020-03-26 21:00:00 8.8 6 Oeste 23 Sur 0 907.1 0.6 84
2020-03-26 20:00:00 10.2 7 Oeste 22 Oeste 0 906.8 0 83
2020-03-26 19:00:00 11 7 Oeste 24 Sur 0 906.6 -0.4 81
2020-03-26 18:00:00 11.1 8 Oeste 24 Sudoeste 0 906.5 -0.9 79
2020-03-26 17:00:00 11.8 9 Oeste 27 Sudoeste 0 906.8 -0.8 73
2020-03-26 16:00:00 13.4 7 Oeste 24 Sudoeste 0 907 -1.2 67
2020-03-26 15:00:00 14.1 7 Oeste 26 Sudoeste 0 907.4 -1.2 68
2020-03-26 14:00:00 14.2 9 Sudoeste 31 Sur 0 907.6 -1.3 62
2020-03-26 13:00:00 13.3 11 Sudoeste 32 Sudoeste 0 908.2 -0.5 65
2020-03-26 12:00:00 12.6 7 Sudoeste 28 Noroeste 0 908.6 -0.2 71
2020-03-26 11:00:00 11.9 8 Oeste 21 Noroeste 0 908.9 0.2 75
2020-03-26 10:00:00 10.6 10 Oeste 23 Oeste 0 908.7 0.2 78
2020-03-26 09:00:00 9.8 7 Oeste 21 Oeste 0 908.8 -0.2 86
2020-03-26 08:00:00 7.6 11 Oeste 22 Oeste 0 908.7 -0.4 95
2020-03-26 07:00:00 6.5 5 Oeste 13 Noroeste 0 908.5 -1.1 94
2020-03-26 06:00:00 6.6 3 Noroeste 14 Oeste 0 909 -1.3 94
2020-03-26 05:00:00 7.3 5 Oeste 17 Noroeste 0 909.1 -1.7 93
2020-03-26 04:00:00 7.6 5 Oeste 14 Noroeste 0 909.6 -1.6 94
2020-03-26 03:00:00 7.9 4 Oeste 17 Sudoeste 0 910.3 -1.1 92
2020-03-26 02:00:00 7.8 5 Oeste 14 Noroeste 0 910.8 -0.8 94
2020-03-26 01:00:00 7.5 6 Oeste 12 Oeste 0 911.2 -0.8 94
2020-03-26 00:00:00 7.3 7 Oeste 14 Oeste 0 911.4 -0.3 92
2020-03-25 23:00:00 7.1 3 Oeste 12 Oeste 0 911.6 0.3 93
2020-03-25 22:00:00 7 5 Oeste 12 Noroeste 0 912 1.2 94
2020-03-25 21:00:00 6.6 6 Oeste 10 Oeste 0 911.7 0.7 92
2020-03-25 20:00:00 7.8 4 Oeste 12 Oeste 0 911.3 0.1 91
2020-03-25 19:00:00 8.6 6 Oeste 15 Oeste 0 910.8 -0.5 88
2020-03-25 18:00:00 9.2 4 Oeste 12 Oeste 0 911 -0.7 87
2020-03-25 17:00:00 9.7 5 Oeste 14 Sudoeste 0.1 911.2 -0.6 85
2020-03-25 16:00:00 10.4 5 Oeste 16 Sudoeste 0 911.3 -0.8 80
2020-03-25 15:00:00 9.5 5 Oeste 15 Oeste 0 911.7 -0.5 83
2020-03-25 14:00:00 10 6 Oeste 14 Oeste 0 911.8 -0.2 84
2020-03-25 13:00:00 8.8 3 Norte 12 Oeste 0 912.1 0.5 89
2020-03-25 12:00:00 8.5 6 Noroeste 11 Noroeste 0 912.2 1.1 90
2020-03-25 11:00:00 8.5 3 Noroeste 11 Oeste 0.1 912 1 94
2020-03-25 10:00:00 8 4 Oeste 10 Sudoeste 0.1 911.6 1 96
2020-03-25 09:00:00 8.3 3 Oeste 8 Oeste 0.8 911.1 1 96
2020-03-25 08:00:00 8.1 4 Oeste 11 Sudoeste 0 911 1.1 96
2020-03-25 07:00:00 8.3 3 Oeste 10 Sudoeste 0.1 910.6 0.9 95
2020-03-25 06:00:00 8.2 4 Oeste 9 Noroeste 0 910.1 0.3 95
2020-03-25 05:00:00 8.5 3 Oeste 8 Oeste 0 909.9 -0.1 95
2020-03-25 04:00:00 8.5 2 Oeste 6 Sudoeste 0 909.7 0 95
2020-03-25 03:00:00 8.4 3 Oeste 7 Oeste 0.1 909.8 0.2 95
2020-03-25 02:00:00 8.5 4 Oeste 9 Oeste 0 910 0.7 95
2020-03-25 01:00:00 8.6 3 Oeste 8 Sudoeste 0 909.7 1 95
2020-03-25 00:00:00 7.9 4 Oeste 10 Oeste 0 909.6 1.4 95
2020-03-24 23:00:00 7.6 5 Oeste 9 Noroeste 0 909.3 1.8 94
2020-03-24 22:00:00 8.6 4 Oeste 9 Oeste 0.1 908.7 1.8 95
2020-03-24 21:00:00 8.5 5 Oeste 10 Oeste 0.8 908.2 1.6 94
2020-03-24 20:00:00 8.9 4 Oeste 9 Sudoeste 4.3 907.5 1.3 94
2020-03-24 19:00:00 9.7 4 Oeste 8 Sudoeste 1.2 906.9 1 92
2020-03-24 18:00:00 11.4 0 Calma 5 Sur 0.1 906.6 0.8 83
2020-03-24 17:00:00 11.2 2 Este 4 Este 0 906.2 0.1 86
2020-03-24 16:00:00 11 0 Calma 6 Norte 0.2 905.9 -0.1 82
2020-03-24 15:00:00 10.2 0 Calma 9 Este 0 905.8 0.1 85
2020-03-24 14:00:00 9.6 3 Este 10 Este 0.1 906.1 0.5 88
2020-03-24 13:00:00 9.6 0 Calma 6 Este 0 906 0.7 89
2020-03-24 12:00:00 9 2 Sur 5 Sur 0.2 905.7 0.6 87
2020-03-24 11:00:00 8.2 0 Calma 11 Nordeste 1.5 905.6 0.3 93
2020-03-24 10:00:00 8.8 3 Nordeste 8 Sudoeste 0.3 905.3 0.9 92
2020-03-24 09:00:00 7.1 2 Sudoeste 9 Noroeste 3 905.1 0.6 95
2020-03-24 08:00:00 7.1 0 Calma 12 Nordeste 1.7 905.3 0.4 90
2020-03-24 07:00:00 6.4 0 Calma 9 Noroeste 0 904.4 -0.7 92
2020-03-24 06:00:00 5.5 5 Oeste 9 Oeste 0 904.5 -0.9 94
2020-03-24 05:00:00 6.1 0 Calma 7 Noroeste 0 904.9 -1.2 91
2020-03-24 04:00:00 5.5 0 Calma 5 Oeste 0.1 905.1 -1.5 93
2020-03-24 03:00:00 6.2 0 Calma 6 Noroeste 0 905.4 -1.3 92
2020-03-24 02:00:00 5.7 2 Oeste 6 Oeste 0 906.1 -0.8 94
2020-03-24 01:00:00 5.1 0 Calma 8 Noroeste 0 906.6 0 92
2020-03-24 00:00:00 5.5 3 Oeste 9 Oeste 0 906.7 0.2 91
2020-03-23 23:00:00 5.1 0 Calma 8 Oeste 0 906.9 0.5 93
2020-03-23 22:00:00 5.7 4 Oeste 7 Oeste 0.1 906.6 0.4 92
2020-03-23 21:00:00 6.8 5 Oeste 8 Noroeste 0.3 906.5 0.6 91
2020-03-23 20:00:00 8.3 0 Calma 17 Este 0 906.4 0.5 77
2020-03-23 19:00:00 9.1 6 Este 15 Este 0 906.2 0 77
2020-03-23 18:00:00 9.6 0 Calma 5 Sur 0 905.9 -0.5 72
2020-03-23 17:00:00 9.2 3 Oeste 8 Oeste 0 905.9 -0.7 80
2020-03-23 16:00:00 9.4 0 Calma 13 Este 0.1 906.2 -1.1 74
2020-03-23 15:00:00 9.4 4 Nordeste 19 Este 0.2 906.4 -1.2 76
2020-03-23 14:00:00 10.3 5 Nordeste 21 Este 0 906.6 -1.1 66
2020-03-23 13:00:00 11.5 7 Este 14 Sudeste 0 907.3 -- 62
2020-03-23 12:00:00 10.7 7 Este 18 Este 0 907.6 -0.2 66
2020-03-23 11:00:00 11.2 3 Este -- -- -- 907.7 0.1 59
2020-03-23 10:00:00 -- -- -- -- -- -- -- -- --
2020-03-23 09:00:00 6.4 4 Este 8 Noroeste 0 907.8 0.7 86
2020-03-23 08:00:00 3.1 3 Oeste 12 Oeste 0 907.6 0.4 94
2020-03-23 07:00:00 2.3 7 Oeste 11 Oeste 0 907 -0.2 94
2020-03-23 06:00:00 2.4 4 Oeste 10 Oeste 0 907.1 -0.3 94
2020-03-23 05:00:00 2.4 6 Oeste 9 Oeste 0 907.2 -0.8 94
2020-03-23 04:00:00 2.4 4 Oeste 9 Oeste 0 907.2 -0.8 94
2020-03-23 03:00:00 2.7 4 Oeste 10 Oeste 0 907.4 -0.8 94
2020-03-23 02:00:00 2.9 5 Oeste 10 Oeste 0 908 -0.4 93
2020-03-23 01:00:00 3.2 8 Oeste 12 Oeste 0.1 908 -0.2 93
2020-03-23 00:00:00 3.1 6 Oeste 9 Oeste 0 908.2 0.4 93
2020-03-22 23:00:00 3.6 6 Oeste 10 Oeste 0 908.4 1.1 93
2020-03-22 22:00:00 4.9 6 Oeste 9 Noroeste 0 908.2 1.3 90
2020-03-22 21:00:00 7 3 Oeste 8 Oeste 0 907.8 1.5 88
2020-03-22 20:00:00 6.9 3 Oeste 10 Sudoeste 0 907.3 1.4 88
2020-03-22 19:00:00 7.9 3 Oeste 14 Sudoeste 0 906.9 1 83
2020-03-22 18:00:00 8.9 3 Oeste 13 Noroeste 0 906.3 0.1 77
2020-03-22 17:00:00 9.5 5 Oeste 15 Noroeste 0 905.9 -0.4 74
2020-03-22 16:00:00 9.4 5 Oeste 17 Sudoeste 0 905.9 -0.7 75
2020-03-22 15:00:00 8.5 6 Oeste 14 Oeste 0.1 906.2 -0.5 77
2020-03-22 14:00:00 8.7 5 Oeste 16 Sudoeste 0 906.3 -0.3 78
2020-03-22 13:00:00 9.1 5 Norte 16 Noroeste 0.1 906.6 0.4 75
2020-03-22 12:00:00 8.2 3 Oeste 12 Noroeste 0 906.7 1.1 78
2020-03-22 11:00:00 8.5 3 Nordeste 12 Nordeste 0 906.6 1.2 79
2020-03-22 10:00:00 9.1 3 Nordeste 9 Nordeste 0 906.2 1 73
2020-03-22 09:00:00 5.4 3 Este 10 Noroeste 0 905.6 0.7 94
2020-03-22 08:00:00 2.5 6 Oeste 9 Oeste 0 905.4 0.4 95
2020-03-22 07:00:00 2.8 6 Oeste 9 Oeste 0.1 905.2 0.1 95
2020-03-22 06:00:00 4.2 4 Oeste 12 Sudoeste 0.1 904.9 -0.5 93
2020-03-22 05:00:00 4.7 3 Oeste 9 Oeste 1.1 905 -0.9 94
2020-03-22 04:00:00 4.2 4 Sudoeste 12 Oeste 0.6 905.1 -1.1 95
2020-03-22 03:00:00 4.2 0 Calma 11 Sudoeste 1.2 905.4 -1.3 94
2020-03-22 02:00:00 4.2 4 Oeste 12 Oeste 1 905.9 -0.8 93
2020-03-22 01:00:00 4.3 4 Oeste 12 Noroeste 1.3 906.2 -0.8 93
2020-03-22 00:00:00 5.1 5 Oeste 18 Sur 2.2 906.7 -0.2 91
2020-03-21 23:00:00 5.7 2 Oeste 14 Oeste 0 906.7 0.2 89
2020-03-21 22:00:00 5.7 5 Oeste 18 Sudoeste 0.1 907 0.8 91
2020-03-21 21:00:00 5.5 6 Oeste 20 Oeste 0.1 906.9 1.5 91
2020-03-21 20:00:00 5.4 7 Oeste 32 Sudoeste 0.7 906.5 1 95
2020-03-21 19:00:00 3.2 7 Oeste 25 Sudoeste 8.4 906.2 0.1 92
2020-03-21 18:00:00 6.6 3 Sudoeste 28 Sur 0.9 905.4 -1.5 90
2020-03-21 17:00:00 6.6 3 Sudoeste 20 Sur 0.2 905.5 -2.2 88
2020-03-21 16:00:00 5.4 2 Sudoeste 32 Sudeste 7.6 906.1 -2 89
2020-03-21 15:00:00 5.9 5 Sudoeste 28 Sudoeste 7 906.9 -1.5 90
2020-03-21 14:00:00 6.1 8 Sudoeste 29 Sudoeste 4.5 907.7 -1.3 87
2020-03-21 13:00:00 7.2 8 Sudoeste 21 Sudoeste 1.7 908.1 -0.7 90
2020-03-21 12:00:00 10.1 5 Sudoeste 19 Sudoeste 0.1 908.4 -0.4 77
2020-03-21 11:00:00 7 5 Oeste 21 Sudoeste 0.6 909 0.5 89
2020-03-21 10:00:00 6.5 5 Oeste 16 Sudoeste 0.8 908.8 0.5 92
2020-03-21 09:00:00 5.5 5 Oeste 18 Noroeste 1.3 908.8 0.6 93
2020-03-21 08:00:00 5.4 6 Oeste 17 Sudoeste 0 908.5 0.4 91
2020-03-21 07:00:00 5.6 5 Sudoeste 20 Sudoeste 0 908.3 0.2 91
2020-03-21 06:00:00 5.3 2 Oeste 21 Noroeste 0.1 908.2 -0.7 91
2020-03-21 05:00:00 5.8 4 Sudoeste 18 Sudoeste 0 908.1 -0.7 92
2020-03-21 04:00:00 5.9 4 Sudoeste 20 Noroeste 0.2 908.1 -0.7 93
2020-03-21 03:00:00 5.9 5 Oeste 24 Oeste 3.3 908.9 0.1 94
2020-03-21 02:00:00 6.3 8 Oeste 30 Sudoeste 14.7 908.8 -0.2 94
2020-03-21 01:00:00 8.2 8 Oeste 28 Oeste 10.6 908.8 -0.6 92
2020-03-21 00:00:00 9.7 4 Nordeste 30 Este 0 908.8 -0.2 90
2020-03-20 23:00:00 9.8 6 Nordeste 32 Este 0 909 -0.1 86
2020-03-20 22:00:00 10 10 Este 34 Este 0 909.4 0.7 83
2020-03-20 21:00:00 9.6 6 Este 28 Sudeste 0 909 0.5 84
2020-03-20 20:00:00 9.9 6 Sudeste 26 Sur 0 909.1 0.4 82
2020-03-20 19:00:00 11 4 Sudoeste 24 Sur 0 908.7 -0.5 73
2020-03-20 18:00:00 11.4 5 Sur 22 Sudoeste 0 908.5 -1.4 74
2020-03-20 17:00:00 13 3 Nordeste 22 Este 0 908.7 -1.8 68
2020-03-20 16:00:00 12.5 4 Nordeste 17 Este 0 909.2 -1.6 69
2020-03-20 15:00:00 10.6 6 Nordeste 18 Este 0 909.9 -0.8 78
2020-03-20 14:00:00 10.1 8 Nordeste 25 Este 0 910.5 -0.3 78
2020-03-20 13:00:00 10.6 10 Este 26 Este 0 910.8 0.5 77
2020-03-20 12:00:00 11.4 8 Sudeste 33 Sudeste 0 910.7 0.7 74
2020-03-20 11:00:00 10.3 6 Sur 35 Sudeste 0 910.8 1.3 78
2020-03-20 10:00:00 10.2 8 Sudeste 28 Sudeste 0 910.3 0.9 75
2020-03-20 09:00:00 9.2 6 Sudeste 22 Sur 0 910 0.6 72
2020-03-20 08:00:00 6.2 4 Oeste 10 Noroeste 0 909.5 0.1 90
2020-03-20 07:00:00 6.6 5 Oeste 13 Noroeste 0 909.4 -0.4 86
2020-03-20 06:00:00 8.9 5 Este 17 Sur 0 909.4 -1.3 77
2020-03-20 05:00:00 7.4 4 Oeste 16 Sudeste 0 909.4 -1.5 81
2020-03-20 04:00:00 8.9 4 Noroeste 21 Nordeste 0 909.8 -1.6 70
2020-03-20 03:00:00 8.6 3 Sudoeste 16 Sudeste 0 910.7 -0.5 78
2020-03-20 02:00:00 9.1 2 Sur 28 Sudoeste 0 910.9 -0.2 81
2020-03-20 01:00:00 9.6 4 Sudoeste 32 Noroeste 0 911.4 0.3 83
2020-03-20 00:00:00 9.7 7 Sudoeste 31 Sur 0 911.2 0.6 82
2020-03-19 23:00:00 9.9 0 Calma 45 Sur 0 911.1 0.7 80
2020-03-19 22:00:00 10.3 15 Sudeste 41 Sur 0 911.1 0.7 78
2020-03-19 21:00:00 11.8 9 Sudeste 28 Sudeste 0 910.6 0.3 68
2020-03-19 20:00:00 12.1 7 Sur 24 Sudoeste 0 910.4 -0.5 68
2020-03-19 19:00:00 12.4 4 Norte 12 Noroeste 0 910.4 -1 68
2020-03-19 18:00:00 13.3 0 Calma 13 Norte 0 910.3 -1.6 66
2020-03-19 17:00:00 12.4 0 Calma 14 Norte 0 910.9 -1.3 68
2020-03-19 16:00:00 12.1 3 Nordeste 19 Este 0 911.4 -1.4 69
2020-03-19 15:00:00 13.6 7 Nordeste 24 Este 0 911.9 -1.1 65
2020-03-19 14:00:00 14.3 8 Nordeste 22 Este 0 912.2 -0.9 60
2020-03-19 13:00:00 14.2 4 Nordeste 16 Nordeste 0 912.8 -0.4 60
2020-03-19 12:00:00 13.9 4 Nordeste 18 Norte 0 913 -0.1 60
2020-03-19 11:00:00 12.5 5 Nordeste 19 Norte 0 913.1 0.3 65
2020-03-19 10:00:00 10.4 3 Nordeste 12 Nordeste 0 913.2 0.1 75
2020-03-19 09:00:00 9.7 3 Norte 12 Norte 0 913.1 -0.6 77
2020-03-19 08:00:00 9.8 3 Norte 23 Este 0 912.8 -1.1 78
2020-03-19 07:00:00 9.5 9 Sur 26 Sur 0 913.1 -0.9 79
2020-03-19 06:00:00 9.5 5 Este 15 Este 0 913.7 -0.9 82
2020-03-19 05:00:00 10 3 Norte 16 Nordeste 0 913.9 -0.6 77
2020-03-19 04:00:00 9.9 4 Nordeste 25 Este 0 914 -0.4 76
2020-03-19 03:00:00 9.9 3 Noroeste 37 Sur 0 914.6 0.1 76
2020-03-19 02:00:00 10.3 17 Sur 47 Sudeste 0 914.5 -0.1 74
2020-03-19 01:00:00 10.9 8 Este 49 Este 0 914.4 -0.2 65
2020-03-19 00:00:00 10.1 18 Este 48 Sudeste 0 914.5 0.2 76
2020-03-18 23:00:00 10.6 13 Sudeste 44 Este 0 914.6 0.8 72
2020-03-18 22:00:00 11.7 24 Este 46 Este 0 914.6 1.1 63
2020-03-18 21:00:00 11.9 13 Este 37 Este 0 914.3 0.8 63
2020-03-18 20:00:00 11.8 18 Este 38 Nordeste 0 913.8 0.1 67
2020-03-18 19:00:00 12.5 19 Este 48 Este 0 913.5 -0.7 63
2020-03-18 18:00:00 13.2 21 Este 48 Este 0 913.5 -0.9 64
2020-03-18 17:00:00 13.5 13 Este 37 Sudeste 0 913.7 -1.4 65
2020-03-18 16:00:00 14.2 5 Nordeste 29 Este 0 914.2 -0.7 65
2020-03-18 15:00:00 12.3 11 Este 39 Nordeste 0 914.4 -0.1 73
2020-03-18 14:00:00 12.2 5 Sudeste 23 Este 0 915.1 0.2 73
2020-03-18 13:00:00 12.1 9 Este 44 Este 0 914.9 0.8 73
2020-03-18 12:00:00 12.3 17 Este 51 Este 0.1 914.5 0.8 73
2020-03-18 11:00:00 11.3 8 Nordeste 32 Este 0 914.9 1.3 76
2020-03-18 10:00:00 12 7 Nordeste 34 Este 0 914.1 0.7 73
2020-03-18 09:00:00 11.4 5 Sudeste 30 Sur 0 913.7 0.4 78
2020-03-18 08:00:00 11.5 5 Este 33 Nordeste 0 913.6 0.2 76
2020-03-18 07:00:00 11.5 12 Este 36 Sudeste 0 913.4 0.3 72
2020-03-18 06:00:00 11.6 10 Este 30 Este 0 913.3 -0.3 74
2020-03-18 05:00:00 11.5 9 Este 33 Nordeste 0 913.4 -0.6 78
2020-03-18 04:00:00 11.1 14 Nordeste 39 Este 0 913.1 -0.8 80
2020-03-18 03:00:00 11 17 Este 36 Este 0 913.6 -0.1 81
2020-03-18 02:00:00 11.5 10 Nordeste 40 Este 0 914 0.7 79
2020-03-18 01:00:00 11.2 14 Nordeste 45 Este 0 913.9 0.1 79
2020-03-18 00:00:00 10.9 9 Nordeste 26 Este 0 913.7 -0.1 76
2020-03-17 23:00:00 9.2 4 Este 18 Este 0 913.3 -0.5 85
2020-03-17 22:00:00 9.3 6 Nordeste 15 Este 0 913.8 0.2 86
2020-03-17 21:00:00 8.6 4 Nordeste 15 Este 0 913.8 0.3 87
2020-03-17 20:00:00 8.3 6 Nordeste 26 Este 0 913.8 0.5 81
2020-03-17 19:00:00 8.6 8 Nordeste 29 Este 0 913.6 0.3 70
2020-03-17 18:00:00 8.5 11 Nordeste 32 Este 0 913.5 0.3 72
2020-03-17 17:00:00 9 5 Nordeste 20 Este 0 913.3 0.1 60
2020-03-17 16:00:00 8.8 5 Nordeste 26 Este 0 913.3 -0.4 62
2020-03-17 15:00:00 8.5 11 Este 31 Este 0 913.2 -0.3 66
2020-03-17 14:00:00 9 15 Este 38 Este 0 913.2 -0.2 64
2020-03-17 13:00:00 8.9 18 Este 44 Este 0.1 913.7 0.7 56
2020-03-17 12:00:00 7.3 18 Este 36 Este 0.1 913.5 1.3 76
2020-03-17 11:00:00 5.2 5 Este 20 Este 0.2 913.4 1.9 83
2020-03-17 10:00:00 3.9 8 Nordeste 25 Este 0.4 913 1.8 88
2020-03-17 09:00:00 3.2 6 Nordeste 18 Nordeste 0.2 912.2 1.7 91
2020-03-17 08:00:00 2.9 3 Este 21 Este 1.9 911.5 1.2 91
2020-03-17 07:00:00 3.3 6 Nordeste 22 Este 0.8 911.2 0.7 93
2020-03-17 06:00:00 2.4 3 Oeste 8 Noroeste 0.2 910.5 -0.3 94
2020-03-17 05:00:00 2.1 4 Sudoeste 14 Noroeste 1.9 910.3 -0.7 93
2020-03-17 04:00:00 2.3 2 Oeste 10 Sudoeste 2.7 910.5 -0.5 93
2020-03-17 03:00:00 2.1 5 Oeste 10 Noroeste 3.2 910.8 -0.3 93
2020-03-17 02:00:00 2.9 4 Oeste 15 Oeste 1.2 911 -0.3 90
2020-03-17 01:00:00 4 5 Oeste 13 Sudoeste 0 911 -0.3 82
2020-03-17 00:00:00 4.1 4 Oeste 13 Sudoeste 0 911.1 -0.2 73
2020-03-16 23:00:00 4.6 4 Noroeste 23 Noroeste 0 911.3 1.2 73
2020-03-16 22:00:00 5.1 6 Noroeste 17 Oeste 0 911.3 1.5 69
2020-03-16 21:00:00 5.5 2 Sudoeste 24 Noroeste 0 911.3 1.7 68
2020-03-16 20:00:00 7 6 Oeste 27 Noroeste 0 910.1 0.5 57
2020-03-16 19:00:00 7.1 6 Oeste 30 Noroeste 0 909.8 0.1 58
2020-03-16 18:00:00 7.2 9 Noroeste 27 Noroeste 0 909.6 0.1 56
2020-03-16 17:00:00 8.1 9 Oeste 31 Norte 0 909.6 0 53
2020-03-16 16:00:00 8.6 10 Oeste 28 Noroeste 0 909.7 -0.1 51
2020-03-16 15:00:00 9.7 10 Oeste 27 Noroeste 0 909.5 -0.4 51
2020-03-16 14:00:00 9.9 6 Oeste 27 Noroeste 0 909.6 -0.9 49
2020-03-16 13:00:00 8.8 9 Oeste 36 Oeste 0 909.8 -0.5 51
2020-03-16 12:00:00 8 11 Noroeste 35 Noroeste 0 909.9 -0.4 42
2020-03-16 11:00:00 6.5 13 Oeste 31 Noroeste 0 910.5 0.4 50
2020-03-16 10:00:00 7.1 5 Oeste 21 Noroeste 0 910.3 0.5 46
2020-03-16 09:00:00 5.1 6 Noroeste 21 Noroeste 0 910.3 1.1 48
2020-03-16 08:00:00 4.5 6 Noroeste 22 Noroeste 0 910.1 1.2 --
2020-03-16 07:00:00 5.1 10 Noroeste 18 Noroeste 0.1 909.8 0.7 84
2020-03-16 06:00:00 6.4 5 Oeste 22 Noroeste 0.2 909.2 -0.4 90
2020-03-16 05:00:00 7.4 7 Oeste 18 Noroeste 0.6 908.9 -1.1 91
2020-03-16 04:00:00 8.9 5 Oeste 19 Noroeste 0.6 909.1 -1.3 94
2020-03-16 03:00:00 9.4 5 Oeste 15 Oeste 0 909.6 -1.3 93
2020-03-16 02:00:00 9.4 5 Oeste 22 Sudoeste 0 910 -0.7 90
2020-03-16 01:00:00 9.4 7 Oeste 16 Oeste 0 910.4 -0.8 88
2020-03-16 00:00:00 9.8 0 Calma 12 Noroeste 0 910.9 0 89
2020-03-15 23:00:00 9.3 2 Oeste 7 Oeste 0 910.7 0.6 85
2020-03-15 22:00:00 11 0 Calma 5 Noroeste 0 911.2 0.9 86
2020-03-15 21:00:00 11.4 4 Noroeste 11 Oeste 0 910.9 0.4 84
2020-03-15 20:00:00 11.4 5 Oeste 9 Noroeste 0 910.1 -0.9 81
2020-03-15 19:00:00 15 2 Oeste 11 Este 0 910.3 -0.9 70
2020-03-15 18:00:00 16.3 6 Este 12 Este 0 910.5 -1 60
2020-03-15 17:00:00 17.9 2 Nordeste 12 Este 0 911 -1.2 49
2020-03-15 16:00:00 17.5 4 Oeste 14 Este 0 911.2 -1.5 54
2020-03-15 15:00:00 18 8 Este 22 Este 0 911.5 -1.4 47
2020-03-15 14:00:00 18.1 3 Este 24 Este 0 912.2 -1.1 48
2020-03-15 13:00:00 17.1 7 Este 19 Nordeste 0 912.7 -0.4 48
2020-03-15 12:00:00 15.4 4 Este 9 Este 0 912.9 0.1 62
2020-03-15 11:00:00 15 3 Este 9 Este 0 913.3 0.8 61
2020-03-15 10:00:00 13.4 3 Nordeste 8 Este 0 913.1 0.8 56
2020-03-15 09:00:00 10.2 6 Oeste 10 Oeste 0 912.8 0.6 74
2020-03-15 08:00:00 9.3 8 Oeste 12 Oeste 0 912.5 0.2 69
2020-03-15 07:00:00 8.8 8 Oeste 11 Oeste 0 912.3 -0.4 60
2020-03-15 06:00:00 8.2 8 Oeste 13 Oeste 0 912.2 -0.8 58
2020-03-15 05:00:00 9.3 8 Oeste 12 Noroeste 0 912.3 -1.2 59
2020-03-15 04:00:00 9.4 7 Oeste 13 Oeste 0 912.7 -1.2 60
2020-03-15 03:00:00 8.4 8 Oeste 14 Noroeste 0 913 -1.2 69
2020-03-15 02:00:00 8.5 7 Oeste 12 Noroeste 0 913.5 -0.9 71
2020-03-15 01:00:00 8.8 9 Oeste 12 Oeste 0 913.9 -0.5 76
2020-03-15 00:00:00 9.8 5 Oeste 10 Oeste 0 914.2 0 90
2020-03-14 23:00:00 10.1 7 Oeste 11 Oeste 0 914.4 0.3 90
2020-03-14 22:00:00 10.3 6 Oeste 9 Oeste 0 914.4 0.3 90
2020-03-14 21:00:00 10.9 6 Oeste 9 Oeste 0 914.2 0.1 88
2020-03-14 20:00:00 12.4 6 Oeste 8 Oeste 0 914.1 0.1 82
2020-03-14 19:00:00 16.1 2 Sudoeste 8 Sudoeste 0 914.1 -0.3 72
2020-03-14 18:00:00 17.5 0 Calma 8 Este 0 914.1 -0.5 65
2020-03-14 17:00:00 17.7 3 Este 10 Este 0 914 -1.4 61
2020-03-14 16:00:00 17.3 3 Noroeste 13 Oeste 0 914.4 -1.2 67
2020-03-14 15:00:00 17.7 3 Este 14 Este 0 914.6 -1.1 57
2020-03-14 14:00:00 18.7 6 Este 14 Este 0 915.4 -0.6 55
2020-03-14 13:00:00 18.2 5 Este 14 Este 0 915.6 -0.1 54
2020-03-14 12:00:00 18.7 5 Nordeste 13 Nordeste 0 915.7 0.2 46
2020-03-14 11:00:00 17.6 4 Este 10 Este 0 916 0.9 48
2020-03-14 10:00:00 16.1 4 Este 9 Este 0 915.7 0.7 56
2020-03-14 09:00:00 10.7 2 Oeste 8 Oeste 0 915.5 0.6 80
2020-03-14 08:00:00 7.2 5 Oeste 9 Noroeste 0 915.1 0.6 85
2020-03-14 07:00:00 6.9 6 Oeste 10 Oeste 0 915 0.2 80
2020-03-14 06:00:00 7.1 6 Oeste 10 Oeste 0 914.9 -0.2 78
2020-03-14 05:00:00 7.6 6 Oeste 12 Oeste 0 914.5 -0.6 76
2020-03-14 04:00:00 7.7 7 Oeste 12 Oeste 0 914.8 -0.3 76
2020-03-14 03:00:00 7.7 5 Oeste 11 Noroeste 0 915.1 -0.1 68
2020-03-14 02:00:00 8.6 6 Oeste 13 Oeste 0 915.1 -0.1 61
2020-03-14 01:00:00 9 8 Oeste 14 Oeste 0 915.1 0.2 56
2020-03-14 00:00:00 8.9 8 Oeste 12 Oeste 0 915.2 0.4 56
2020-03-13 23:00:00 9.7 6 Oeste 11 Oeste 0 915.2 0.9 68
2020-03-13 22:00:00 10.9 6 Oeste 9 Oeste 0 914.9 0.7 79
2020-03-13 21:00:00 11 6 Oeste 10 Noroeste 0 914.8 0.8 80
2020-03-13 20:00:00 10.9 7 Noroeste 11 Noroeste 0 914.3 0.4 76
2020-03-13 19:00:00 15 0 Calma 8 Este 0 914.2 0.1 69
2020-03-13 18:00:00 16 3 Este 13 Sudoeste 0 914 -0.2 62
2020-03-13 17:00:00 18 2 Nordeste 14 Oeste 0 913.9 -0.8 58
2020-03-13 16:00:00 18.9 3 Nordeste 12 Nordeste 0 914.1 -0.7 56
2020-03-13 15:00:00 18.9 4 Nordeste 12 Este 0 914.2 -0.8 54
2020-03-13 14:00:00 19.3 5 Este 12 Este 0 914.7 -0.2 52
2020-03-13 13:00:00 18.1 5 Este 11 Sudeste 0 914.8 0.2 58
2020-03-13 12:00:00 18.4 4 Nordeste 9 Este 0 915 0.8 54
2020-03-13 11:00:00 18 3 Este 8 Este 0 914.9 1 48
2020-03-13 10:00:00 16.8 2 Nordeste 8 Nordeste 0 914.6 0.8 46
2020-03-13 09:00:00 11.4 4 Oeste 13 Oeste 0 914.2 0.5 52
2020-03-13 08:00:00 8.5 8 Oeste 13 Noroeste 0 913.9 0 52
2020-03-13 07:00:00 8.8 9 Oeste 14 Oeste 0 913.8 -0.5 50
2020-03-13 06:00:00 9.5 7 Oeste 10 Oeste 0 913.7 -0.9 49
2020-03-13 05:00:00 9.6 6 Oeste 14 Oeste 0 913.9 -1 50
2020-03-13 04:00:00 11.8 8 Oeste 12 Noroeste 0 914.3 -1.1 45
2020-03-13 03:00:00 11.3 9 Oeste 14 Noroeste 0 914.6 -1 42
2020-03-13 02:00:00 11.9 8 Oeste 12 Oeste 0 914.9 -0.6 45
2020-03-13 01:00:00 12.5 4 Oeste 12 Oeste 0 915.4 -0.1 70
2020-03-13 00:00:00 12.2 6 Oeste 12 Oeste 0 915.6 0.1 61
2020-03-12 23:00:00 13.4 4 Oeste 10 Noroeste 0 915.5 0.3 53
2020-03-12 22:00:00 15.2 7 Oeste 12 Oeste 0 915.5 0.4 60
2020-03-12 21:00:00 15.1 5 Oeste 12 Noroeste 0 915.5 0.3 71
2020-03-12 20:00:00 15.4 5 Oeste 12 Oeste 0 915.2 -0.2 68
2020-03-12 19:00:00 16.9 3 Oeste 10 Oeste 0 915.1 -0.6 64
2020-03-12 18:00:00 20.5 4 Sudoeste 17 Oeste 0 915.2 -0.8 46
2020-03-12 17:00:00 21.3 5 Oeste 18 Sudoeste 0 915.4 -1.2 43
2020-03-12 16:00:00 22 5 Sudoeste 18 Sudoeste 0 915.7 -1.5 45
2020-03-12 15:00:00 21.9 8 Oeste 20 Sudoeste 0 916 -1.3 46
2020-03-12 14:00:00 22.4 8 Oeste 20 Oeste 0 916.6 -0.8 43
2020-03-12 13:00:00 22.9 8 Oeste 16 Oeste 0 917.2 0.1 39
2020-03-12 12:00:00 23.3 6 Este 15 Este 0 917.3 0.3 31
2020-03-12 11:00:00 22.3 4 Noroeste 19 Sur 0 917.4 0.9 32
2020-03-12 10:00:00 20.8 4 Este 19 Sudeste 0 917.1 0.8 34
2020-03-12 09:00:00 15.6 4 Oeste 15 Sur 0 917 0.9 56
2020-03-12 08:00:00 18.2 3 Sudeste 19 Sudeste 0 916.5 -0.1 36
2020-03-12 07:00:00 18.4 3 Sudeste 22 Sur 0 916.3 -0.5 35
2020-03-12 06:00:00 18.6 9 Sudeste 25 Sur 0 916.1 -1.1 32
2020-03-12 05:00:00 18.6 8 Sudeste 23 Sudeste 0 916.6 -1 32
2020-03-12 04:00:00 17.9 5 Oeste 21 Sur 0 916.8 -1.3 36
2020-03-12 03:00:00 20 2 Sudeste 18 Sudoeste 0 917.2 -1.1 28
2020-03-12 02:00:00 20.3 5 Este 22 Este 0 917.6 -0.9 26
2020-03-12 01:00:00 21.1 8 Sudeste 22 Este 0 918.1 -0.3 25
2020-03-12 00:00:00 20.9 6 Sudeste 19 Sudeste 0 918.3 0 25
2020-03-11 23:00:00 20.9 6 Este 21 Sudeste 0 918.5 0.5 25
2020-03-11 22:00:00 21.1 3 Sudeste 21 Sur 0 918.4 0.4 25
2020-03-11 21:00:00 21.4 2 Este 31 Este 0 918.3 0.3 24
2020-03-11 20:00:00 22.1 12 Este 35 Este 0 918 0 23
2020-03-11 19:00:00 22.3 14 Este 32 Este 0 918 -0.4 23
2020-03-11 18:00:00 22.2 9 Nordeste 32 Nordeste 0 918 -0.7 26
2020-03-11 17:00:00 22.6 10 Nordeste 37 Nordeste 0 918 -1.4 24
2020-03-11 16:00:00 22.2 12 Nordeste 36 Este 0 918.4 -1.5 28
2020-03-11 15:00:00 22.4 13 Nordeste 34 Nordeste 0 918.7 -1.7 28
2020-03-11 14:00:00 22.2 12 Nordeste 35 Este 0 919.4 -1 29
2020-03-11 13:00:00 21.8 13 Nordeste 36 Este 0 919.9 -0.3 31
2020-03-11 12:00:00 21.9 10 Nordeste 33 Este 0 920.4 0.4 32
2020-03-11 11:00:00 21.5 10 Nordeste 27 Este 0 920.4 0.7 32
2020-03-11 10:00:00 20.8 8 Nordeste 23 Este 0 920.2 0.8 32
2020-03-11 09:00:00 18.8 5 Este 18 Nordeste 0 920 0.7 36
2020-03-11 08:00:00 17.4 5 Este 18 Este 0 919.7 0.4 39
2020-03-11 07:00:00 16.8 4 Sudeste 21 Sur 0 919.4 -0.2 39
2020-03-11 06:00:00 17.7 6 Sudeste 15 Sudoeste 0 919.3 -0.9 38
2020-03-11 05:00:00 14.4 0 Calma 13 Sudoeste 0 919.3 -1.3 50
2020-03-11 04:00:00 12 6 Oeste 12 Oeste 0 919.6 -1.6 58
2020-03-11 03:00:00 11.4 7 Oeste 13 Oeste 0 920.2 -1.4 63
2020-03-11 02:00:00 11.6 8 Oeste 13 Oeste 0 920.6 -1 63
2020-03-11 01:00:00 11.4 6 Oeste 12 Oeste 0 921.2 -0.7 64
2020-03-11 00:00:00 11.5 9 Oeste 13 Oeste 0 921.6 -0.2 64
2020-03-10 23:00:00 11.3 6 Oeste 11 Noroeste 0 921.6 -0.1 67
2020-03-10 22:00:00 11.3 7 Oeste 11 Noroeste 0 921.9 0.3 66
2020-03-10 21:00:00 11.6 8 Oeste 12 Oeste 0 921.8 0.7 66
2020-03-10 20:00:00 13.8 5 Oeste 8 Oeste 0 921.7 0.6 64
2020-03-10 19:00:00 17.5 4 Oeste 6 Oeste 0 921.6 0.1 52
2020-03-10 18:00:00 21 2 Nordeste 12 Este 0 921.1 -0.7 38
2020-03-10 17:00:00 21.6 3 Nordeste 10 Noroeste 0 921.1 -1 35
2020-03-10 16:00:00 22.2 5 Este 18 Nordeste 0 921.5 -0.9 32
2020-03-10 15:00:00 22.4 4 Este 12 Este 0 921.8 -0.6 32
2020-03-10 14:00:00 22.3 5 Este 13 Nordeste 0 922.1 -0.1 31
2020-03-10 13:00:00 21.4 6 Este 15 Nordeste 0 922.4 0.7 32
2020-03-10 12:00:00 20.6 5 Este 15 Este 0 922.4 1.3 35
2020-03-10 11:00:00 18 3 Este 10 Nordeste 0 922.2 1.6 36
2020-03-10 10:00:00 17.2 0 Calma 12 Oeste 0 921.7 1.4 39
2020-03-10 09:00:00 12.9 0 Calma 10 Noroeste 0 921.1 1 52
2020-03-10 08:00:00 11 0 Calma 13 Este 0 920.6 0.6 52
2020-03-10 07:00:00 10.7 7 Este 13 Este 0 920.3 0 49
2020-03-10 06:00:00 11.2 0 Calma 11 Este 0 920.1 -0.8 49
2020-03-10 05:00:00 10.4 0 Calma 11 Oeste 0 920 -1.2 52
2020-03-10 04:00:00 8.8 0 Calma 9 Noroeste 0 920.3 -0.9 59
2020-03-10 03:00:00 8.6 0 Calma 8 Oeste 0 920.9 -0.4 65
2020-03-10 02:00:00 9.6 0 Calma 7 Oeste 0 921.2 -0.1 62
2020-03-10 01:00:00 11.3 0 Calma 9 Este 0 921.2 0 56
2020-03-10 00:00:00 12.2 0 Calma 11 Este 0 921.3 0.5 50
2020-03-09 23:00:00 11.4 2 Oeste 8 Noroeste 0 921.3 0.9 54
2020-03-09 22:00:00 13.3 0 Calma 19 Este 0 921.2 0.7 46
2020-03-09 21:00:00 13.3 3 Noroeste 14 Oeste 0 920.8 0.5 41
2020-03-09 20:00:00 13.4 4 Noroeste 18 Noroeste 0 920.4 -0.1 43
2020-03-09 19:00:00 13.4 3 Oeste 14 Nordeste 0 920.5 0.1 48
2020-03-09 18:00:00 16 3 Sudeste 13 Este 0 920.3 -0.8 37
2020-03-09 17:00:00 17.7 0 Calma 21 Nordeste 0 920.5 -1.1 38
2020-03-09 16:00:00 18.5 5 Este 17 Este 0 920.4 -1.9 31
2020-03-09 15:00:00 19.1 3 Este 18 Sudoeste 0 921.1 -1.5 23
2020-03-09 14:00:00 19.1 5 Este 20 Este 0 921.6 -1.1 18
2020-03-09 13:00:00 16.7 6 Este 17 Este 0 922.3 0.3 31
2020-03-09 12:00:00 16.2 7 Este 19 Este 0 922.6 1 35
2020-03-09 11:00:00 15.8 4 Este 15 Este 0 922.7 1.2 39
2020-03-09 10:00:00 14.6 4 Este 12 Este 0 922 1 39
2020-03-09 09:00:00 12.6 4 Este 10 Sur 0 921.6 0.7 57
2020-03-09 08:00:00 6.9 3 Oeste 8 Noroeste 0 921.5 0.6 68
2020-03-09 07:00:00 7.6 3 Oeste 10 Oeste 0 921 -0.3 57
2020-03-09 06:00:00 5.8 5 Oeste 15 Oeste 0 920.9 -0.3 72
2020-03-09 05:00:00 7 6 Oeste 10 Oeste 0 920.9 -0.5 64
2020-03-09 04:00:00 9.2 0 Calma 8 Oeste 0 921.3 -0.2 51
2020-03-09 03:00:00 10.6 5 Noroeste 12 Noroeste 0 921.2 -0.6 45
2020-03-09 02:00:00 8.9 6 Oeste 11 Oeste 0 921.4 -0.4 52
2020-03-09 01:00:00 8.7 6 Oeste 14 Oeste 0 921.5 -0.3 55
2020-03-09 00:00:00 9.6 5 Oeste 12 Oeste 0 921.8 0.1 51
2020-03-08 23:00:00 11.7 4 Oeste 9 Sudoeste 0 921.8 0 42
2020-03-08 22:00:00 12 2 Oeste 12 Noroeste 0 921.8 0.5 43
2020-03-08 21:00:00 11.3 5 Oeste 16 Oeste 0 921.7 0.7 40
2020-03-08 20:00:00 12.9 5 Oeste 15 Oeste 0 921.8 1.1 42
2020-03-08 19:00:00 13.6 3 Oeste 12 Sudoeste 0 921.3 0.4 47
2020-03-08 18:00:00 15.7 4 Oeste 13 Sudoeste 0 921 0 34
2020-03-08 17:00:00 18 4 Oeste 13 Sudoeste 0 920.7 -0.6 38
2020-03-08 16:00:00 19.1 4 Oeste 12 Este 0 920.9 -1.3 38
2020-03-08 15:00:00 19.3 8 Este 13 Este 0 921 -1.2 23
2020-03-08 14:00:00 19.1 7 Este 15 Nordeste 0 921.3 -0.5 24
2020-03-08 13:00:00 17.5 5 Este 14 Este 0 922.2 1 29
2020-03-08 12:00:00 17 7 Este 14 Nordeste 0 922.2 1.3 31
2020-03-08 11:00:00 16.3 6 Este 10 Nordeste 0 921.8 1.6 35
2020-03-08 10:00:00 13.9 0 Calma 7 Oeste 0 921.2 1.3 41
2020-03-08 09:00:00 8.3 6 Oeste 11 Oeste 0 920.9 1 57
2020-03-08 08:00:00 4.6 7 Oeste 12 Oeste 0 920.2 0.1 59
2020-03-08 07:00:00 4.2 7 Oeste 12 Noroeste 0 919.9 -0.5 61
2020-03-08 06:00:00 3.9 10 Oeste 13 Noroeste 0 919.9 -0.9 70
2020-03-08 05:00:00 3.4 6 Oeste 11 Oeste 0 920.1 -0.9 78
2020-03-08 04:00:00 3.7 8 Oeste 11 Oeste 0 920.4 -0.8 77
2020-03-08 03:00:00 4.4 7 Oeste 11 Oeste 0 920.8 -0.7 72
2020-03-08 02:00:00 5.6 2 Oeste 9 Oeste 0 921 -0.7 66
2020-03-08 01:00:00 7.7 0 Calma 5 Este 0 921.2 -0.2 59
2020-03-08 00:00:00 8.4 0 Calma 6 Sur 0 921.5 0.5 54